createdAt,value
2022-11-03T00:02:20.604Z,13.60
2022-11-03T00:04:48.428Z,13.30
2022-11-03T00:07:22.649Z,13.00
2022-11-03T00:09:50.312Z,11.70
2022-11-03T00:12:20.283Z,13.50
2022-11-03T00:14:47.832Z,11.90
2022-11-03T00:17:15.474Z,13.20
2022-11-03T00:19:43.055Z,12.70
2022-11-03T00:22:10.689Z,13.40
2022-11-03T00:24:38.253Z,12.70
2022-11-03T00:27:06.957Z,12.30
2022-11-03T00:29:34.971Z,13.00
2022-11-03T00:32:02.455Z,12.50
2022-11-03T00:34:30.004Z,13.40
2022-11-03T00:37:03.583Z,13.10
2022-11-03T00:39:31.192Z,13.10
2022-11-03T00:41:58.887Z,11.70
2022-11-03T00:44:26.909Z,13.40
2022-11-03T00:46:54.636Z,12.00
2022-11-03T00:49:22.201Z,13.80
2022-11-03T00:51:49.998Z,12.30
2022-11-03T00:54:17.772Z,12.80
2022-11-03T00:56:45.551Z,13.20
2022-11-03T00:59:13.206Z,13.40
2022-11-03T01:01:47.104Z,13.00
2022-11-03T01:04:36.082Z,13.10
2022-11-03T01:07:05.978Z,12.50
2022-11-03T01:09:40.669Z,12.70
2022-11-03T01:12:30.569Z,12.40
2022-11-03T01:14:58.219Z,12.70
2022-11-03T01:17:27.984Z,12.50
2022-11-03T01:19:55.844Z,13.00
2022-11-03T01:22:24.820Z,12.10
2022-11-03T01:24:52.587Z,13.50
2022-11-03T01:27:25.133Z,13.10
2022-11-03T01:29:52.678Z,13.00
2022-11-03T01:32:20.274Z,12.60
2022-11-03T01:34:47.883Z,12.40
2022-11-03T01:37:15.448Z,12.10
2022-11-03T01:39:43.068Z,15.50
2022-11-03T01:42:13.852Z,12.50
2022-11-03T01:44:47.667Z,11.90
2022-11-03T01:47:21.992Z,13.10
2022-11-03T01:50:18.328Z,13.20
2022-11-03T01:52:57.890Z,12.70
2022-11-03T01:55:31.890Z,12.70
2022-11-03T01:58:15.952Z,17.70
2022-11-03T02:00:47.050Z,22.80
2022-11-03T02:03:16.281Z,15.00
2022-11-03T02:05:49.491Z,13.70
2022-11-03T02:08:25.582Z,12.20
2022-11-03T02:10:53.400Z,14.30
2022-11-03T02:13:25.642Z,15.30
2022-11-03T02:15:59.873Z,15.40
2022-11-03T02:18:33.998Z,16.00
2022-11-03T02:21:42.484Z,17.80
2022-11-03T02:24:23.899Z,18.30
2022-11-03T02:26:55.746Z,19.80
2022-11-03T02:29:24.403Z,25.30
2022-11-03T02:32:07.741Z,24.30
2022-11-03T02:34:55.594Z,24.50
2022-11-03T02:37:29.393Z,24.40
2022-11-03T02:40:24.998Z,26.20
2022-11-03T02:42:53.529Z,24.00
2022-11-03T02:45:25.837Z,24.10
2022-11-03T02:48:01.312Z,23.40
2022-11-03T02:50:32.060Z,23.30
2022-11-03T02:53:00.664Z,23.20
2022-11-03T02:55:52.881Z,25.50
2022-11-03T02:58:48.171Z,24.80
2022-11-03T03:01:27.540Z,23.70
2022-11-03T03:04:03.654Z,25.70
2022-11-03T03:06:37.415Z,33.60
2022-11-03T03:09:10.129Z,37.90
2022-11-03T03:11:42.911Z,37.10
2022-11-03T03:14:31.816Z,37.20
2022-11-03T03:17:25.436Z,34.70
2022-11-03T03:20:13.081Z,39.20
2022-11-03T03:23:21.422Z,38.40
2022-11-03T03:26:04.657Z,38.60
2022-11-03T03:28:40.224Z,38.70
2022-11-03T03:31:13.570Z,36.80
2022-11-03T03:33:46.680Z,41.20
2022-11-03T03:36:19.470Z,45.00
2022-11-03T03:39:00.099Z,44.40
2022-11-03T03:41:32.002Z,41.20
2022-11-03T03:44:05.519Z,39.80
2022-11-03T03:46:50.418Z,38.90
2022-11-03T03:49:18.536Z,45.30
2022-11-03T03:51:47.898Z,50.70
2022-11-03T03:54:15.511Z,46.60
2022-11-03T03:57:04.964Z,46.30
2022-11-03T03:59:32.588Z,47.80
2022-11-03T04:02:00.517Z,49.90
2022-11-03T04:04:28.501Z,50.00
2022-11-03T04:07:31.317Z,45.70
2022-11-03T04:09:58.976Z,60.00
2022-11-03T04:12:47.615Z,59.40
2022-11-03T04:15:34.080Z,59.60
2022-11-03T04:18:20.851Z,62.90
2022-11-03T04:21:07.022Z,61.60
2022-11-03T04:23:34.646Z,51.00
2022-11-03T04:26:09.856Z,51.70
2022-11-03T04:28:37.653Z,57.40
2022-11-03T04:31:10.692Z,84.10
2022-11-03T04:33:42.135Z,112.90
2022-11-03T04:36:27.519Z,97.70
2022-11-03T04:38:56.144Z,115.30
2022-11-03T04:41:29.183Z,215.50
2022-11-03T04:43:57.278Z,161.90
2022-11-03T04:46:30.542Z,149.60
2022-11-03T04:49:01.307Z,80.90
2022-11-03T04:51:34.276Z,68.90
2022-11-03T04:54:12.810Z,71.80
2022-11-03T04:56:40.595Z,73.50
2022-11-03T04:59:13.479Z,65.20
2022-11-03T05:01:43.369Z,66.40
2022-11-03T05:04:14.462Z,61.60
2022-11-03T05:06:51.969Z,52.50
2022-11-03T05:09:31.140Z,47.30
2022-11-03T05:11:58.879Z,46.60
2022-11-03T05:14:29.997Z,34.00
2022-11-03T05:17:02.303Z,35.90
2022-11-03T05:19:35.689Z,38.70
2022-11-03T05:22:08.565Z,39.00
2022-11-03T05:24:36.427Z,44.20
2022-11-03T05:27:12.678Z,51.70
2022-11-03T05:29:42.166Z,48.20
2022-11-03T05:32:25.711Z,52.40
2022-11-03T05:34:56.539Z,53.10
2022-11-03T05:37:30.727Z,63.70
2022-11-03T05:40:01.864Z,148.00
2022-11-03T05:42:32.026Z,91.40
2022-11-03T05:45:04.226Z,68.30
2022-11-03T05:47:39.568Z,68.40
2022-11-03T05:50:34.020Z,59.70
2022-11-03T05:53:31.860Z,61.20
2022-11-03T05:56:04.168Z,60.40
2022-11-03T05:58:42.750Z,51.70
2022-11-03T06:01:23.251Z,44.30
2022-11-03T06:03:51.179Z,41.90
2022-11-03T06:06:37.910Z,45.40
2022-11-03T06:09:18.237Z,49.40
2022-11-03T06:11:45.969Z,41.40
2022-11-03T06:14:27.727Z,40.20
2022-11-03T06:17:09.849Z,34.70
2022-11-03T06:19:47.692Z,35.70
2022-11-03T06:22:23.190Z,37.60
2022-11-03T06:24:58.483Z,31.10
2022-11-03T06:27:31.569Z,27.50
2022-11-03T06:30:29.358Z,25.80
2022-11-03T06:33:35.700Z,26.80
2022-11-03T06:36:18.119Z,23.20
2022-11-03T06:39:00.146Z,21.50
2022-11-03T06:41:35.492Z,20.40
2022-11-03T06:44:27.771Z,22.20
2022-11-03T06:47:01.083Z,21.80
2022-11-03T06:49:35.840Z,21.90
2022-11-03T06:52:39.466Z,21.70
2022-11-03T06:55:10.698Z,21.10
2022-11-03T06:57:48.723Z,25.30
2022-11-03T07:00:37.645Z,29.30
2022-11-03T07:03:27.525Z,32.00
2022-11-03T07:06:17.326Z,29.70
2022-11-03T07:08:49.455Z,28.40
2022-11-03T07:14:30.239Z,25.50
2022-11-03T07:17:14.470Z,23.60
2022-11-03T07:19:45.833Z,21.50
2022-11-03T07:22:33.507Z,23.50
2022-11-03T07:25:03.449Z,24.40
2022-11-03T07:27:37.249Z,31.60
2022-11-03T07:30:10.280Z,30.90
2022-11-03T07:32:39.200Z,30.70
2022-11-03T07:36:14.356Z,28.10
2022-11-03T07:38:42.508Z,23.10
2022-11-03T07:41:18.978Z,22.60
2022-11-03T07:43:58.531Z,19.50
2022-11-03T07:46:27.439Z,17.70
2022-11-03T07:48:58.601Z,19.00
2022-11-03T07:51:53.997Z,17.00
2022-11-03T07:54:34.074Z,20.10
2022-11-03T07:57:23.015Z,16.60
2022-11-03T08:00:21.460Z,17.40
2022-11-03T08:03:01.963Z,19.30
2022-11-03T08:05:30.125Z,18.20
2022-11-03T08:07:58.327Z,20.70
2022-11-03T08:10:27.695Z,20.00
2022-11-03T08:12:55.791Z,19.70
2022-11-03T08:15:23.786Z,18.10
2022-11-03T08:17:55.999Z,14.50
2022-11-03T08:20:28.710Z,16.00
2022-11-03T08:23:20.103Z,15.70
2022-11-03T08:25:59.386Z,15.90
2022-11-03T08:28:30.391Z,15.10
2022-11-03T08:31:08.022Z,16.10
2022-11-03T08:33:41.158Z,16.00
2022-11-03T08:36:10.256Z,18.50
2022-11-03T08:38:38.502Z,20.00
2022-11-03T08:41:26.779Z,21.50
2022-11-03T08:43:55.164Z,24.90
2022-11-03T08:46:23.303Z,22.50
2022-11-03T08:48:57.306Z,17.40
2022-11-03T08:51:25.330Z,20.70
2022-11-03T08:53:55.974Z,20.10
2022-11-03T08:56:24.263Z,16.40
2022-11-03T08:58:52.220Z,15.50
2022-11-03T09:01:23.064Z,14.50
2022-11-03T09:03:52.129Z,13.10
2022-11-03T09:06:20.460Z,12.00
2022-11-03T09:11:38.859Z,11.00
2022-11-03T09:14:07.138Z,10.80
2022-11-03T09:16:36.576Z,11.10
2022-11-03T09:19:07.550Z,10.60
2022-11-03T09:21:39.792Z,10.10
2022-11-03T09:24:11.848Z,9.90
2022-11-03T09:26:42.046Z,9.60
2022-11-03T09:29:12.397Z,9.50
2022-11-03T09:31:49.363Z,9.80
2022-11-03T09:34:43.332Z,9.90
2022-11-03T09:37:16.434Z,9.00
2022-11-03T09:39:44.678Z,9.40
2022-11-03T09:42:12.965Z,9.10
2022-11-03T09:44:41.545Z,8.70
2022-11-03T09:47:27.351Z,7.70
2022-11-03T09:49:57.753Z,7.60
2022-11-03T09:52:31.339Z,15.30
2022-11-03T09:55:02.237Z,8.90
2022-11-03T09:57:30.981Z,9.30
2022-11-03T10:00:07.950Z,8.00
2022-11-03T10:02:42.895Z,9.00
2022-11-03T10:05:31.378Z,13.50
2022-11-03T10:12:04.004Z,11.50
2022-11-03T10:14:38.770Z,10.00
2022-11-03T10:17:41.737Z,12.10
2022-11-03T10:20:48.618Z,10.60
2022-11-03T10:23:35.337Z,9.80
2022-11-03T10:26:35.376Z,11.60
2022-11-03T10:29:24.306Z,10.60
2022-11-03T10:32:06.375Z,13.20
2022-11-03T10:34:45.837Z,10.80
2022-11-03T10:37:45.193Z,10.60
2022-11-03T10:40:47.667Z,12.10
2022-11-03T10:43:27.715Z,16.50
2022-11-03T10:49:18.964Z,10.80
2022-11-03T10:51:50.808Z,13.20
2022-11-03T10:54:26.338Z,10.60
2022-11-03T10:56:54.900Z,6.90
2022-11-03T10:59:34.592Z,9.00
2022-11-03T11:02:30.904Z,9.50
2022-11-03T11:05:01.992Z,7.90
2022-11-03T11:07:39.923Z,9.90
2022-11-03T11:10:21.763Z,10.40
2022-11-03T11:13:21.415Z,13.40
2022-11-03T11:15:59.160Z,6.90
2022-11-03T11:18:29.972Z,6.90
2022-11-03T11:21:18.841Z,7.50
2022-11-03T11:23:48.558Z,5.90
2022-11-03T11:26:26.433Z,6.90
2022-11-03T11:29:09.541Z,8.30
2022-11-03T11:31:44.820Z,6.20
2022-11-03T11:34:19.252Z,5.80
2022-11-03T11:36:59.590Z,4.80
2022-11-03T11:39:30.696Z,7.50
2022-11-03T11:42:23.023Z,6.80
2022-11-03T11:45:02.493Z,5.50
2022-11-03T11:47:48.781Z,7.00
2022-11-03T11:50:29.077Z,4.70
2022-11-03T11:53:10.319Z,5.50
2022-11-03T11:56:01.007Z,4.80
2022-11-03T11:58:53.910Z,4.50
2022-11-03T12:01:34.785Z,5.40
2022-11-03T12:06:47.634Z,4.70
2022-11-03T12:09:21.017Z,4.10
2022-11-03T12:12:05.331Z,3.70
2022-11-03T12:14:38.667Z,4.20
2022-11-03T12:17:18.567Z,4.10
2022-11-03T12:19:56.884Z,4.50
2022-11-03T12:22:27.775Z,5.30
2022-11-03T12:25:03.451Z,4.50
2022-11-03T12:27:33.537Z,3.50
2022-11-03T12:30:25.312Z,4.40
2022-11-03T12:32:59.986Z,4.60
2022-11-03T12:35:28.091Z,4.50
2022-11-03T12:37:56.164Z,4.10
2022-11-03T12:40:33.927Z,3.80
2022-11-03T12:43:06.496Z,4.10
2022-11-03T12:45:38.533Z,3.90
2022-11-03T12:48:08.243Z,4.00
2022-11-03T12:50:38.816Z,5.00
2022-11-03T12:53:07.453Z,4.20
2022-11-03T12:55:37.228Z,4.30
2022-11-03T12:58:15.467Z,3.40
2022-11-03T13:01:39.132Z,4.40
2022-11-03T13:03:40.157Z,4.50
2022-11-03T13:06:09.804Z,4.80
2022-11-03T13:08:37.801Z,4.10
2022-11-03T13:11:25.834Z,3.50
2022-11-03T13:13:56.636Z,4.50
2022-11-03T13:16:32.797Z,4.60
2022-11-03T13:19:03.002Z,4.20
2022-11-03T13:21:31.468Z,3.70
2022-11-03T13:23:59.398Z,3.60
2022-11-03T13:27:02.456Z,3.90
2022-11-03T13:29:39.067Z,4.20
2022-11-03T13:32:10.207Z,4.40
2022-11-03T13:35:02.548Z,4.90
2022-11-03T13:37:44.215Z,4.60
2022-11-03T13:40:35.759Z,5.70
2022-11-03T13:43:02.717Z,5.40
2022-11-03T13:45:33.220Z,4.90
2022-11-03T13:49:20.046Z,6.20
2022-11-03T13:51:22.556Z,5.90
2022-11-03T14:00:51.784Z,6.30
2022-11-03T14:06:33.001Z,5.60
2022-11-03T14:09:14.887Z,5.60
2022-11-03T14:12:31.747Z,6.00
2022-11-03T14:18:22.560Z,5.00
2022-11-03T14:19:46.004Z,5.00
2022-11-03T14:22:22.038Z,6.20
2022-11-03T14:25:25.450Z,8.10
2022-11-03T14:28:25.626Z,7.50
2022-11-03T14:34:37.845Z,9.40
2022-11-03T14:37:28.722Z,9.90
2022-11-03T14:40:06.411Z,10.80
2022-11-03T14:43:06.093Z,14.00
2022-11-03T14:45:42.530Z,9.70
2022-11-03T14:48:27.874Z,10.80
2022-11-03T14:50:56.709Z,8.40
2022-11-03T14:53:36.435Z,10.30
2022-11-03T14:56:09.462Z,12.00
2022-11-03T14:58:52.399Z,12.60
2022-11-03T15:01:26.371Z,10.60
2022-11-03T15:04:03.103Z,12.60
2022-11-03T15:06:31.143Z,12.10
2022-11-03T15:09:05.120Z,11.00
2022-11-03T15:11:36.207Z,11.40
2022-11-03T15:14:12.121Z,10.30
2022-11-03T15:16:45.628Z,11.70
2022-11-03T15:20:17.182Z,12.60
2022-11-03T15:26:06.402Z,14.00
2022-11-03T15:28:42.538Z,13.20
2022-11-03T15:31:15.747Z,14.20
2022-11-03T15:34:03.116Z,13.20
2022-11-03T15:38:02.536Z,16.50
2022-11-03T15:40:48.335Z,20.30
2022-11-03T15:43:41.661Z,19.70
2022-11-03T15:46:26.085Z,17.80
2022-11-03T15:49:12.543Z,16.10
2022-11-03T15:51:52.261Z,15.80
2022-11-03T15:54:22.793Z,18.60
2022-11-03T15:56:56.665Z,17.90
2022-11-03T15:59:39.736Z,18.20
2022-11-03T16:02:40.355Z,24.70
2022-11-03T16:05:11.012Z,21.90
2022-11-03T16:11:20.745Z,21.60
2022-11-03T16:14:05.934Z,22.60
2022-11-03T16:16:33.883Z,23.30
2022-11-03T16:19:07.368Z,29.60
2022-11-03T16:21:47.535Z,23.80
2022-11-03T16:24:51.977Z,27.90
2022-11-03T16:27:53.104Z,21.60
2022-11-03T16:30:54.737Z,21.00
2022-11-03T16:33:23.344Z,19.20
2022-11-03T16:35:54.197Z,21.40
2022-11-03T16:38:34.111Z,18.80
2022-11-03T16:41:18.294Z,19.80
2022-11-03T16:44:14.631Z,25.20
2022-11-03T16:46:55.784Z,24.80
2022-11-03T16:49:40.967Z,27.30
2022-11-03T16:52:11.810Z,25.60
2022-11-03T16:54:43.065Z,27.40
2022-11-03T16:57:12.018Z,30.10
2022-11-03T16:59:42.890Z,31.80
2022-11-03T17:07:19.366Z,48.00
2022-11-03T17:11:28.308Z,38.70
2022-11-03T17:14:15.771Z,41.50
2022-11-03T17:17:19.470Z,45.50
2022-11-03T17:20:46.361Z,57.10
2022-11-03T17:23:14.590Z,39.80
2022-11-03T17:25:45.730Z,39.10
2022-11-03T17:28:34.947Z,45.90
2022-11-03T17:34:13.947Z,38.10
2022-11-03T17:36:43.099Z,36.40
2022-11-03T17:39:34.748Z,45.40
2022-11-03T17:42:54.328Z,39.40
2022-11-03T17:45:33.760Z,35.90
2022-11-03T17:48:09.075Z,36.00
2022-11-03T17:50:42.288Z,39.30
2022-11-03T17:53:25.680Z,35.40
2022-11-03T17:58:59.413Z,35.70
2022-11-03T18:01:45.069Z,36.80
2022-11-03T18:04:22.598Z,29.80
2022-11-03T18:06:56.215Z,26.10
2022-11-03T18:09:32.831Z,25.90
2022-11-03T18:13:01.514Z,24.10
2022-11-03T18:16:03.991Z,24.40
2022-11-03T18:18:48.633Z,23.30
2022-11-03T18:21:37.239Z,19.70
2022-11-03T18:24:23.928Z,19.70
2022-11-03T18:27:25.147Z,19.40
2022-11-03T18:29:53.473Z,19.00
2022-11-03T18:32:21.378Z,20.90
2022-11-03T18:34:52.491Z,17.10
2022-11-03T18:37:22.048Z,17.80
2022-11-03T18:39:49.868Z,16.80
2022-11-03T18:42:46.034Z,20.20
2022-11-03T18:45:18.780Z,17.20
2022-11-03T18:47:51.884Z,16.00
2022-11-03T18:50:42.447Z,17.30
2022-11-03T18:53:25.312Z,18.30
2022-11-03T18:56:26.199Z,17.00
2022-11-03T18:59:11.806Z,18.20
2022-11-03T19:01:54.132Z,17.90
2022-11-03T19:04:33.129Z,17.20
2022-11-03T19:07:02.473Z,19.00
2022-11-03T19:09:30.141Z,17.70
2022-11-03T19:12:00.977Z,17.50
2022-11-03T19:14:32.643Z,17.20
2022-11-03T19:19:55.612Z,18.80
2022-11-03T19:22:23.463Z,17.40
2022-11-03T19:24:57.128Z,16.60
2022-11-03T19:27:36.051Z,17.30
2022-11-03T19:30:05.104Z,16.20
2022-11-03T19:32:39.840Z,15.90
2022-11-03T19:35:42.743Z,16.80
2022-11-03T19:38:19.320Z,16.00
2022-11-03T19:41:15.138Z,15.80
2022-11-03T19:44:03.152Z,17.80
2022-11-03T19:46:31.362Z,18.20
2022-11-03T19:49:03.933Z,19.50
2022-11-03T19:51:38.203Z,19.60
2022-11-03T19:54:15.182Z,22.30
2022-11-03T19:56:46.673Z,22.00
2022-11-03T19:59:22.082Z,18.00
2022-11-03T20:01:55.672Z,19.00
2022-11-03T20:04:26.050Z,20.30
2022-11-03T20:07:03.441Z,19.70
2022-11-03T20:09:32.690Z,18.10
2022-11-03T20:12:07.315Z,17.70
2022-11-03T20:14:36.617Z,16.70
2022-11-03T20:17:24.477Z,16.90
2022-11-03T20:19:52.828Z,16.70
2022-11-03T20:22:29.556Z,15.80
2022-11-03T20:25:03.807Z,14.90
2022-11-03T20:27:32.149Z,14.30
2022-11-03T20:30:00.845Z,15.10
2022-11-03T20:32:32.663Z,15.00
2022-11-03T20:35:54.173Z,14.30
2022-11-03T20:38:39.564Z,13.40
2022-11-03T20:41:14.671Z,16.30
2022-11-03T20:43:47.127Z,13.90
2022-11-03T20:46:24.097Z,15.10
2022-11-03T20:48:54.973Z,14.60
2022-11-03T20:51:54.356Z,13.50
2022-11-03T20:54:32.208Z,12.80
2022-11-03T20:57:15.304Z,14.50
2022-11-03T20:59:44.001Z,14.70
2022-11-03T21:02:13.144Z,13.20
2022-11-03T21:04:45.487Z,14.50
2022-11-03T21:09:40.899Z,13.90
2022-11-03T21:12:15.047Z,15.10
2022-11-03T21:17:49.775Z,15.90
2022-11-03T21:20:18.767Z,18.40
2022-11-03T21:22:52.324Z,19.50
2022-11-03T21:25:24.460Z,20.80
2022-11-03T21:28:05.677Z,19.20
2022-11-03T21:30:33.509Z,22.00
2022-11-03T21:33:01.236Z,18.70
2022-11-03T21:35:31.556Z,17.50
2022-11-03T21:38:02.829Z,13.60
2022-11-03T21:40:30.762Z,17.50
2022-11-03T21:43:17.631Z,14.50
2022-11-03T21:45:45.590Z,14.50
2022-11-03T21:48:32.569Z,14.40
2022-11-03T21:51:01.881Z,13.90
2022-11-03T21:53:36.212Z,13.20
2022-11-03T21:56:15.390Z,15.20
2022-11-03T21:58:49.711Z,13.40
2022-11-03T22:01:28.379Z,13.20
2022-11-03T22:04:03.099Z,13.30
2022-11-03T22:06:36.121Z,13.40
2022-11-03T22:09:33.045Z,13.60
2022-11-03T22:12:03.059Z,13.80
2022-11-03T22:14:51.732Z,12.80
2022-11-03T22:17:23.656Z,15.10
2022-11-03T22:20:12.852Z,13.90
2022-11-03T22:23:33.996Z,13.00
2022-11-03T22:26:21.271Z,12.70
2022-11-03T22:29:09.143Z,12.40
2022-11-03T22:31:42.214Z,11.60
2022-11-03T22:34:28.463Z,10.60
2022-11-03T22:36:56.019Z,12.30
2022-11-03T22:39:42.393Z,12.80
2022-11-03T22:42:30.835Z,14.20
2022-11-03T22:45:17.001Z,12.90
2022-11-03T22:47:44.686Z,12.00
2022-11-03T22:50:12.559Z,12.00
2022-11-03T22:52:40.280Z,12.10
2022-11-03T22:55:08.223Z,11.60
2022-11-03T22:57:35.699Z,12.70
2022-11-03T23:00:05.199Z,12.60
2022-11-03T23:02:32.932Z,11.90
2022-11-03T23:05:00.441Z,11.90
2022-11-03T23:07:31.208Z,11.50
2022-11-03T23:10:04.265Z,12.60
2022-11-03T23:12:31.802Z,11.20
2022-11-03T23:15:17.996Z,12.40
2022-11-03T23:18:04.106Z,13.80
2022-11-03T23:20:50.307Z,12.20
2022-11-03T23:23:36.502Z,11.80
2022-11-03T23:26:07.749Z,12.40
2022-11-03T23:28:35.301Z,12.20
2022-11-03T23:31:03.060Z,11.10
2022-11-03T23:33:31.281Z,12.70
2022-11-03T23:36:07.794Z,12.40
2022-11-03T23:38:37.109Z,12.70
2022-11-03T23:41:08.905Z,11.90
2022-11-03T23:43:37.104Z,12.60
2022-11-03T23:46:23.685Z,12.10
2022-11-03T23:48:52.192Z,11.60
2022-11-03T23:51:23.573Z,12.10
2022-11-03T23:53:52.586Z,11.90
2022-11-03T23:56:43.008Z,11.70
2022-11-03T23:59:12.546Z,12.60
